Zanesville Municipal Airport Zanesville US
ICAO: KZZV
IATA: ZZV
Category: Medium
Scheduled Services: No

Elevation: 900 ft
TransAlt. 18000 ft.

Airport Communications:
ASOS:111.4
INDIANAPOLIS CNTR:124.45
CLEVELAND RDO:122.2
CTAF/UNICOM:123

KZZV Zoom In..

If you have problems with the map follow the link
https://www.worldairports.se/pages/airport.php?
ICAO=KZZV

Runways:

(A) RW 04 length 5000 ft width 150 ft
---- / hdg 40

(B) RW 16 length 4999 ft width 150 ft
---- / hdg 158

(C) RW 22 length 5000 ft width 150 ft
ILS 109.95 / hdg 220

(D) RW 34 length 4999 ft width 150 ft
---- / hdg 338

Location; KZZV
Day. 21 / Time. 03.53 Zulu
* Altimeter: 30.54
* Temperature: -06° c. -21.2°f.
* Wind from: 340° Speed 06 kn.
Dewpoint: -11° c.
Visibility: 10 Statute Miles.
Clouds: Overcast 3800 ft.

KZZV 210353Z AUTO 34006KT 10SM OVC038 M06/M11 A3054 RMK AO2 SLP355 T10561106


Wind From 340°
Speed 06 kn.

 
 
jpsmedia worldairports.se 2020   terms of use